createdAt,value
2023-01-22T00:05:02.034Z,5.30
2023-01-22T00:10:04.975Z,5.03
2023-01-22T00:15:23.758Z,4.50
2023-01-22T00:20:26.777Z,4.57
2023-01-22T00:25:29.361Z,4.30
2023-01-22T00:30:33.798Z,4.20
2023-01-22T00:35:36.410Z,4.73
2023-01-22T00:40:38.830Z,4.70
2023-01-22T00:45:41.406Z,4.80
2023-01-22T00:50:43.954Z,4.50
2023-01-22T00:55:58.139Z,4.57
2023-01-22T01:01:04.143Z,4.07
2023-01-22T01:06:16.113Z,4.73
2023-01-22T01:11:26.117Z,5.07
2023-01-22T01:16:31.533Z,4.57
2023-01-22T01:21:34.755Z,4.50
2023-01-22T01:26:39.160Z,4.80
2023-01-22T01:31:41.713Z,5.03
2023-01-22T01:36:49.249Z,4.67
2023-01-22T01:41:52.323Z,4.60
2023-01-22T01:47:05.472Z,4.53
2023-01-22T01:52:11.519Z,4.33
2023-01-22T01:57:18.196Z,4.60
2023-01-22T02:02:21.027Z,4.60
2023-01-22T02:07:24.644Z,4.60
2023-01-22T02:12:27.270Z,4.67
2023-01-22T02:17:29.971Z,4.37
2023-01-22T02:22:36.298Z,4.67
2023-01-22T02:27:38.848Z,5.07
2023-01-22T02:32:41.792Z,5.07
2023-01-22T02:37:44.453Z,4.33
2023-01-22T02:42:46.924Z,4.93
2023-01-22T02:47:49.768Z,4.43
2023-01-22T02:52:52.215Z,5.00
2023-01-22T02:57:54.694Z,4.97
2023-01-22T03:02:57.750Z,5.55
2023-01-22T03:08:00.316Z,4.47
2023-01-22T03:13:21.691Z,4.73
2023-01-22T03:18:44.282Z,4.67
2023-01-22T03:23:51.359Z,4.63
2023-01-22T03:28:54.082Z,5.07
2023-01-22T03:33:57.388Z,4.53
2023-01-22T03:39:00.499Z,4.67
2023-01-22T03:44:04.801Z,4.40
2023-01-22T03:49:14.176Z,4.30
2023-01-22T03:54:17.797Z,5.00
2023-01-22T03:59:20.559Z,4.57
2023-01-22T04:04:23.291Z,5.23
2023-01-22T04:09:26.134Z,4.73
2023-01-22T04:14:28.632Z,3.33
2023-01-22T04:19:34.228Z,4.33
2023-01-22T04:24:56.982Z,4.53
2023-01-22T04:29:59.550Z,4.87
2023-01-22T04:35:02.172Z,4.77
2023-01-22T04:40:12.811Z,5.17
2023-01-22T04:45:15.947Z,4.70
2023-01-22T04:50:24.139Z,4.17
2023-01-22T04:55:27.889Z,5.50
2023-01-22T05:00:38.417Z,5.33
2023-01-22T05:05:41.319Z,5.33
2023-01-22T05:10:43.820Z,5.80
2023-01-22T05:15:52.774Z,5.17
2023-01-22T05:20:55.581Z,4.80
2023-01-22T05:26:01.923Z,5.50
2023-01-22T05:31:14.612Z,5.37
2023-01-22T05:36:29.296Z,5.50
2023-01-22T05:41:36.136Z,4.80
2023-01-22T05:46:38.939Z,5.50
2023-01-22T05:52:00.179Z,5.70
2023-01-22T05:57:04.169Z,5.50
2023-01-22T06:02:07.065Z,5.67
2023-01-22T06:07:14.470Z,5.33
2023-01-22T06:12:18.546Z,5.27
2023-01-22T06:17:23.440Z,5.90
2023-01-22T06:22:37.404Z,6.60
2023-01-22T06:27:40.360Z,5.97
2023-01-22T06:32:42.996Z,6.07
2023-01-22T06:37:47.847Z,6.17
2023-01-22T06:42:50.415Z,5.83
2023-01-22T06:47:53.483Z,5.30
2023-01-22T06:52:55.905Z,6.33
2023-01-22T06:57:58.836Z,6.03
2023-01-22T07:03:04.922Z,5.93
2023-01-22T07:08:07.998Z,4.37
2023-01-22T07:13:10.477Z,6.00
2023-01-22T07:18:14.579Z,4.97
2023-01-22T07:23:17.096Z,4.37
2023-01-22T07:28:19.484Z,5.53
2023-01-22T07:33:21.898Z,5.27
2023-01-22T07:38:27.187Z,5.43
2023-01-22T07:43:29.651Z,4.20
2023-01-22T07:48:32.762Z,6.07
2023-01-22T07:53:35.773Z,6.23
2023-01-22T07:58:39.420Z,4.07
2023-01-22T08:03:41.810Z,6.40
2023-01-22T08:08:44.536Z,5.87
2023-01-22T08:13:47.254Z,5.70
2023-01-22T08:18:49.940Z,5.87
2023-01-22T08:23:52.431Z,5.77
2023-01-22T08:28:55.019Z,6.10
2023-01-22T08:33:59.717Z,6.50
2023-01-22T08:39:02.309Z,7.70
2023-01-22T08:44:04.996Z,6.97
2023-01-22T08:49:08.646Z,6.00
2023-01-22T08:54:11.252Z,6.83
2023-01-22T08:59:14.180Z,6.57
2023-01-22T09:04:16.692Z,6.13
2023-01-22T09:09:19.101Z,6.87
2023-01-22T09:14:21.544Z,6.77
2023-01-22T09:19:24.257Z,6.13
2023-01-22T09:24:26.920Z,5.00
2023-01-22T09:29:29.485Z,5.87
2023-01-22T09:34:31.928Z,6.40
2023-01-22T09:39:34.650Z,5.63
2023-01-22T09:44:47.728Z,6.30
2023-01-22T09:49:58.983Z,6.20
2023-01-22T09:55:01.647Z,6.67
2023-01-22T10:00:04.710Z,6.13
2023-01-22T10:05:17.064Z,5.60
2023-01-22T10:10:22.540Z,5.50
2023-01-22T10:15:25.724Z,6.13
2023-01-22T10:20:28.767Z,6.37
2023-01-22T10:25:31.239Z,5.80
2023-01-22T10:30:35.627Z,8.10
2023-01-22T10:35:49.853Z,4.70
2023-01-22T10:41:03.759Z,7.53
2023-01-22T10:46:26.672Z,6.47
2023-01-22T10:51:41.391Z,8.23
2023-01-22T10:56:44.375Z,5.80
2023-01-22T11:01:48.925Z,5.00
2023-01-22T11:06:59.994Z,5.53
2023-01-22T11:12:16.123Z,6.20
2023-01-22T11:17:44.854Z,6.23
2023-01-22T11:23:10.877Z,5.70
2023-01-22T11:28:41.779Z,6.23
2023-01-22T11:34:08.181Z,6.23
2023-01-22T11:39:28.532Z,5.60
2023-01-22T11:44:39.808Z,5.97
2023-01-22T11:50:19.819Z,5.73
2023-01-22T11:55:43.913Z,5.57
2023-01-22T12:01:11.461Z,4.93
2023-01-22T12:06:31.924Z,4.70
2023-01-22T12:11:48.654Z,5.37
2023-01-22T12:17:06.135Z,5.50
2023-01-22T12:22:27.429Z,4.67
2023-01-22T12:27:39.103Z,5.53
2023-01-22T12:32:46.017Z,5.23
2023-01-22T12:38:07.194Z,4.30
2023-01-22T12:43:10.130Z,5.50
2023-01-22T12:48:39.205Z,5.17
2023-01-22T12:53:41.754Z,5.80
2023-01-22T12:58:44.288Z,5.20
2023-01-22T13:03:59.356Z,4.50
2023-01-22T13:09:02.957Z,4.80
2023-01-22T13:14:18.983Z,4.77
2023-01-22T13:19:24.687Z,4.87
2023-01-22T13:24:27.230Z,4.53
2023-01-22T13:29:34.072Z,4.90
2023-01-22T13:34:36.653Z,4.63
2023-01-22T13:39:39.424Z,5.00
2023-01-22T13:44:47.928Z,4.40
2023-01-22T13:49:50.319Z,4.80
2023-01-22T13:54:59.150Z,5.23
2023-01-22T14:00:04.089Z,4.73
2023-01-22T14:05:23.301Z,4.50
2023-01-22T14:10:26.474Z,4.50
2023-01-22T14:15:29.521Z,4.00
2023-01-22T14:20:31.973Z,4.30
2023-01-22T14:25:39.432Z,4.57
2023-01-22T14:30:41.994Z,4.50
2023-01-22T14:35:44.577Z,4.67
2023-01-22T14:40:47.456Z,4.43
2023-01-22T14:45:49.963Z,4.60
2023-01-22T14:50:52.623Z,4.63
2023-01-22T14:55:55.096Z,4.90
2023-01-22T15:00:57.586Z,4.53
2023-01-22T15:06:00.150Z,4.37
2023-01-22T15:11:03.213Z,4.03
2023-01-22T15:16:10.488Z,4.10
2023-01-22T15:21:13.069Z,4.00
2023-01-22T15:26:35.475Z,3.63
2023-01-22T15:31:38.888Z,3.80
2023-01-22T15:36:41.382Z,3.30
2023-01-22T15:41:44.368Z,3.23
2023-01-22T15:46:47.342Z,4.50
2023-01-22T15:51:49.766Z,4.33
2023-01-22T15:56:52.274Z,4.17
2023-01-22T16:01:54.794Z,3.80
2023-01-22T16:06:57.460Z,4.27
2023-01-22T16:12:00.185Z,3.63
2023-01-22T16:17:02.689Z,3.83
2023-01-22T16:22:05.644Z,4.17
2023-01-22T16:27:08.677Z,4.50
2023-01-22T16:32:11.203Z,3.27
2023-01-22T16:37:13.788Z,5.17
2023-01-22T16:42:16.249Z,4.17
2023-01-22T16:47:19.356Z,4.13
2023-01-22T16:52:23.180Z,3.97
2023-01-22T16:57:25.803Z,4.13
2023-01-22T17:02:28.383Z,3.87
2023-01-22T17:07:33.976Z,3.40
2023-01-22T17:12:37.030Z,3.90
2023-01-22T17:17:40.027Z,4.40
2023-01-22T17:22:42.713Z,4.77
2023-01-22T17:27:45.121Z,4.80
2023-01-22T17:32:47.865Z,4.67
2023-01-22T17:37:51.067Z,4.23
2023-01-22T17:42:53.683Z,4.80
2023-01-22T17:47:56.246Z,5.50
2023-01-22T17:52:58.885Z,5.60
2023-01-22T17:58:01.817Z,6.23
2023-01-22T18:03:05.044Z,3.90
2023-01-22T18:08:07.873Z,5.40
2023-01-22T18:13:10.410Z,5.67
2023-01-22T18:18:13.359Z,4.57
2023-01-22T18:23:16.687Z,4.33
2023-01-22T18:28:19.515Z,4.67
2023-01-22T18:33:22.305Z,4.37
2023-01-22T18:38:26.612Z,4.57
2023-01-22T18:43:29.039Z,4.43
2023-01-22T18:48:31.723Z,5.00
2023-01-22T18:53:35.656Z,5.10
2023-01-22T18:58:39.158Z,4.83
2023-01-22T19:03:45.202Z,4.53
2023-01-22T19:08:54.348Z,4.60
2023-01-22T19:13:58.664Z,4.53
2023-01-22T19:19:04.086Z,5.40
2023-01-22T19:24:08.723Z,4.80
2023-01-22T19:29:19.947Z,4.70
2023-01-22T19:34:24.830Z,5.40
2023-01-22T19:39:27.660Z,4.40
2023-01-22T19:44:30.968Z,4.90
2023-01-22T19:49:33.474Z,5.00
2023-01-22T19:54:40.640Z,4.73
2023-01-22T19:59:43.432Z,4.37
2023-01-22T20:04:45.832Z,4.57
2023-01-22T20:09:49.012Z,4.60
2023-01-22T20:14:51.523Z,4.80
2023-01-22T20:19:53.986Z,4.60
2023-01-22T20:24:56.674Z,5.17
2023-01-22T20:29:59.364Z,4.60
2023-01-22T20:35:01.829Z,4.20
2023-01-22T20:40:04.480Z,4.90
2023-01-22T20:45:07.747Z,4.53
2023-01-22T20:50:11.077Z,4.03
2023-01-22T20:55:15.599Z,4.30
2023-01-22T21:00:18.570Z,4.80
2023-01-22T21:05:21.277Z,4.50
2023-01-22T21:10:23.840Z,5.00
2023-01-22T21:15:26.436Z,4.30
2023-01-22T21:20:29.056Z,4.83
2023-01-22T21:25:34.261Z,4.07
2023-01-22T21:30:37.190Z,4.80
2023-01-22T21:35:39.844Z,4.13
2023-01-22T21:40:42.314Z,4.30
2023-01-22T21:46:03.718Z,4.50
2023-01-22T21:51:06.380Z,5.10
2023-01-22T21:56:09.161Z,4.67
2023-01-22T22:01:15.975Z,4.40
2023-01-22T22:06:18.538Z,4.77
2023-01-22T22:11:21.288Z,4.27
2023-01-22T22:16:24.254Z,4.60
2023-01-22T22:21:26.929Z,4.60
2023-01-22T22:26:29.462Z,4.30
2023-01-22T22:31:32.317Z,4.10
2023-01-22T22:36:35.380Z,4.97
2023-01-22T22:41:38.934Z,4.90
2023-01-22T22:46:41.592Z,4.90
2023-01-22T22:51:45.582Z,4.73
2023-01-22T22:56:49.337Z,4.70
2023-01-22T23:01:52.356Z,4.53
2023-01-22T23:06:54.993Z,5.13
2023-01-22T23:12:01.059Z,5.10
2023-01-22T23:17:04.812Z,4.90
2023-01-22T23:22:07.389Z,4.33
2023-01-22T23:27:09.993Z,4.20
2023-01-22T23:32:12.639Z,4.40
2023-01-22T23:37:15.056Z,4.27
2023-01-22T23:42:18.257Z,4.73
2023-01-22T23:47:20.937Z,4.20
2023-01-22T23:52:23.378Z,4.67
2023-01-22T23:57:25.800Z,4.83
